sensor_id;sensor_type;location;lat;lon;timestamp;temperature;humidity
18581;DHT22;9420;50.876;7.012;2023-11-19T00:02:14;10.13;90.92
18581;DHT22;9420;50.876;7.012;2023-11-19T00:04:41;10.30;90.71
18581;DHT22;9420;50.876;7.012;2023-11-19T00:07:09;10.28;90.57
18581;DHT22;9420;50.876;7.012;2023-11-19T00:09:38;10.18;90.55
18581;DHT22;9420;50.876;7.012;2023-11-19T00:12:06;10.26;90.77
18581;DHT22;9420;50.876;7.012;2023-11-19T00:14:33;10.22;90.88
18581;DHT22;9420;50.876;7.012;2023-11-19T00:17:00;10.25;91.16
18581;DHT22;9420;50.876;7.012;2023-11-19T00:19:26;10.43;90.59
18581;DHT22;9420;50.876;7.012;2023-11-19T00:21:53;10.36;90.61
18581;DHT22;9420;50.876;7.012;2023-11-19T00:24:21;10.40;90.80
18581;DHT22;9420;50.876;7.012;2023-11-19T00:26:47;10.46;90.42
18581;DHT22;9420;50.876;7.012;2023-11-19T00:29:14;10.37;90.25
18581;DHT22;9420;50.876;7.012;2023-11-19T00:31:41;10.46;90.19
18581;DHT22;9420;50.876;7.012;2023-11-19T00:34:07;10.53;90.38
18581;DHT22;9420;50.876;7.012;2023-11-19T00:36:34;10.53;90.08
18581;DHT22;9420;50.876;7.012;2023-11-19T00:39:01;10.61;90.04
18581;DHT22;9420;50.876;7.012;2023-11-19T00:41:29;10.77;89.55
18581;DHT22;9420;50.876;7.012;2023-11-19T00:43:55;10.80;89.75
18581;DHT22;9420;50.876;7.012;2023-11-19T00:46:22;10.80;89.61
18581;DHT22;9420;50.876;7.012;2023-11-19T00:48:49;10.84;89.73
18581;DHT22;9420;50.876;7.012;2023-11-19T00:51:15;10.80;89.61
18581;DHT22;9420;50.876;7.012;2023-11-19T00:53:42;10.68;90.12
18581;DHT22;9420;50.876;7.012;2023-11-19T00:56:10;10.47;90.45
18581;DHT22;9420;50.876;7.012;2023-11-19T00:58:39;10.57;90.47
18581;DHT22;9420;50.876;7.012;2023-11-19T01:01:06;10.49;90.59
18581;DHT22;9420;50.876;7.012;2023-11-19T01:03:32;10.54;90.64
18581;DHT22;9420;50.876;7.012;2023-11-19T01:05:59;10.49;90.59
18581;DHT22;9420;50.876;7.012;2023-11-19T01:08:27;10.64;91.06
18581;DHT22;9420;50.876;7.012;2023-11-19T01:10:54;10.76;90.93
18581;DHT22;9420;50.876;7.012;2023-11-19T01:13:21;10.85;90.64
18581;DHT22;9420;50.876;7.012;2023-11-19T01:15:49;10.77;90.67
18581;DHT22;9420;50.876;7.012;2023-11-19T01:18:16;10.88;91.13
18581;DHT22;9420;50.876;7.012;2023-11-19T01:20:42;10.90;91.27
18581;DHT22;9420;50.876;7.012;2023-11-19T01:23:09;10.84;91.19
18581;DHT22;9420;50.876;7.012;2023-11-19T01:25:36;10.77;91.58
18581;DHT22;9420;50.876;7.012;2023-11-19T01:28:03;10.84;91.70
18581;DHT22;9420;50.876;7.012;2023-11-19T01:30:30;10.88;91.72
18581;DHT22;9420;50.876;7.012;2023-11-19T01:32:58;10.88;91.74
18581;DHT22;9420;50.876;7.012;2023-11-19T01:35:25;10.77;91.81
18581;DHT22;9420;50.876;7.012;2023-11-19T01:37:53;10.88;91.98
18581;DHT22;9420;50.876;7.012;2023-11-19T01:40:20;10.95;91.96
18581;DHT22;9420;50.876;7.012;2023-11-19T01:42:47;10.98;91.91
18581;DHT22;9420;50.876;7.012;2023-11-19T01:45:22;11.07;91.98
18581;DHT22;9420;50.876;7.012;2023-11-19T01:47:53;11.03;91.86
18581;DHT22;9420;50.876;7.012;2023-11-19T01:50:21;10.94;91.93
18581;DHT22;9420;50.876;7.012;2023-11-19T01:52:50;11.04;91.99
18581;DHT22;9420;50.876;7.012;2023-11-19T01:55:17;10.94;91.89
18581;DHT22;9420;50.876;7.012;2023-11-19T01:57:43;10.94;92.10
18581;DHT22;9420;50.876;7.012;2023-11-19T02:00:10;11.05;92.10
18581;DHT22;9420;50.876;7.012;2023-11-19T02:02:38;11.12;91.90
18581;DHT22;9420;50.876;7.012;2023-11-19T02:05:05;11.05;91.62
18581;DHT22;9420;50.876;7.012;2023-11-19T02:07:33;11.04;91.69
18581;DHT22;9420;50.876;7.012;2023-11-19T02:10:00;11.52;91.26
18581;DHT22;9420;50.876;7.012;2023-11-19T02:12:28;11.73;90.81
18581;DHT22;9420;50.876;7.012;2023-11-19T02:14:54;11.66;90.90
18581;DHT22;9420;50.876;7.012;2023-11-19T02:17:25;11.38;91.00
18581;DHT22;9420;50.876;7.012;2023-11-19T02:19:52;11.83;90.97
18581;DHT22;9420;50.876;7.012;2023-11-19T02:22:19;11.90;90.36
18581;DHT22;9420;50.876;7.012;2023-11-19T02:24:48;12.01;90.13
18581;DHT22;9420;50.876;7.012;2023-11-19T02:27:23;12.38;89.01
18581;DHT22;9420;50.876;7.012;2023-11-19T02:29:53;12.18;89.04
18581;DHT22;9420;50.876;7.012;2023-11-19T02:32:19;12.31;89.13
18581;DHT22;9420;50.876;7.012;2023-11-19T02:34:46;12.18;89.03
18581;DHT22;9420;50.876;7.012;2023-11-19T02:37:14;11.77;89.77
18581;DHT22;9420;50.876;7.012;2023-11-19T02:39:41;11.87;90.41
18581;DHT22;9420;50.876;7.012;2023-11-19T02:42:08;11.91;89.95
18581;DHT22;9420;50.876;7.012;2023-11-19T02:44:35;11.55;90.49
18581;DHT22;9420;50.876;7.012;2023-11-19T02:47:05;11.55;90.57
18581;DHT22;9420;50.876;7.012;2023-11-19T02:49:33;11.38;90.76
18581;DHT22;9420;50.876;7.012;2023-11-19T02:51:59;11.18;91.08
18581;DHT22;9420;50.876;7.012;2023-11-19T02:54:26;11.08;91.25
18581;DHT22;9420;50.876;7.012;2023-11-19T02:56:53;10.85;91.45
18581;DHT22;9420;50.876;7.012;2023-11-19T02:59:25;10.78;91.46
18581;DHT22;9420;50.876;7.012;2023-11-19T03:01:57;10.53;91.52
18581;DHT22;9420;50.876;7.012;2023-11-19T03:04:26;10.52;91.63
18581;DHT22;9420;50.876;7.012;2023-11-19T03:06:53;10.49;91.94
18581;DHT22;9420;50.876;7.012;2023-11-19T03:09:20;10.66;91.96
18581;DHT22;9420;50.876;7.012;2023-11-19T03:11:47;10.84;91.58
18581;DHT22;9420;50.876;7.012;2023-11-19T03:14:14;10.91;91.28
18581;DHT22;9420;50.876;7.012;2023-11-19T03:16:44;11.00;90.90
18581;DHT22;9420;50.876;7.012;2023-11-19T03:19:11;11.15;90.93
18581;DHT22;9420;50.876;7.012;2023-11-19T03:21:39;11.66;88.98
18581;DHT22;9420;50.876;7.012;2023-11-19T03:24:06;11.72;88.83
18581;DHT22;9420;50.876;7.012;2023-11-19T03:26:34;12.18;87.75
18581;DHT22;9420;50.876;7.012;2023-11-19T03:29:00;12.46;86.52
18581;DHT22;9420;50.876;7.012;2023-11-19T03:31:27;12.49;86.14
18581;DHT22;9420;50.876;7.012;2023-11-19T03:33:54;12.48;85.89
18581;DHT22;9420;50.876;7.012;2023-11-19T03:36:20;12.48;85.82
18581;DHT22;9420;50.876;7.012;2023-11-19T03:38:49;12.53;85.64
18581;DHT22;9420;50.876;7.012;2023-11-19T03:41:16;12.55;85.31
18581;DHT22;9420;50.876;7.012;2023-11-19T03:43:42;12.39;86.02
18581;DHT22;9420;50.876;7.012;2023-11-19T03:46:18;12.51;85.49
18581;DHT22;9420;50.876;7.012;2023-11-19T03:48:45;12.45;85.81
18581;DHT22;9420;50.876;7.012;2023-11-19T03:51:12;12.48;85.82
18581;DHT22;9420;50.876;7.012;2023-11-19T03:53:41;12.60;85.19
18581;DHT22;9420;50.876;7.012;2023-11-19T03:56:09;12.58;85.58
18581;DHT22;9420;50.876;7.012;2023-11-19T03:58:37;12.63;85.24
18581;DHT22;9420;50.876;7.012;2023-11-19T04:01:04;12.53;85.80
18581;DHT22;9420;50.876;7.012;2023-11-19T04:03:30;12.85;84.77
18581;DHT22;9420;50.876;7.012;2023-11-19T04:05:57;12.83;85.01
18581;DHT22;9420;50.876;7.012;2023-11-19T04:08:24;12.79;85.07
18581;DHT22;9420;50.876;7.012;2023-11-19T04:10:54;12.96;84.40
18581;DHT22;9420;50.876;7.012;2023-11-19T04:13:21;12.79;85.21
18581;DHT22;9420;50.876;7.012;2023-11-19T04:15:49;12.90;84.41
18581;DHT22;9420;50.876;7.012;2023-11-19T04:18:16;12.78;84.69
18581;DHT22;9420;50.876;7.012;2023-11-19T04:20:43;12.86;84.63
18581;DHT22;9420;50.876;7.012;2023-11-19T04:23:09;12.92;84.23
18581;DHT22;9420;50.876;7.012;2023-11-19T04:25:36;12.90;84.21
18581;DHT22;9420;50.876;7.012;2023-11-19T04:28:03;12.93;83.94
18581;DHT22;9420;50.876;7.012;2023-11-19T04:30:31;12.93;84.40
18581;DHT22;9420;50.876;7.012;2023-11-19T04:32:58;12.97;84.12
18581;DHT22;9420;50.876;7.012;2023-11-19T04:35:24;13.13;83.71
18581;DHT22;9420;50.876;7.012;2023-11-19T04:37:51;13.06;84.18
18581;DHT22;9420;50.876;7.012;2023-11-19T04:40:18;12.92;84.57
18581;DHT22;9420;50.876;7.012;2023-11-19T04:42:47;12.92;84.88
18581;DHT22;9420;50.876;7.012;2023-11-19T04:45:14;12.90;85.10
18581;DHT22;9420;50.876;7.012;2023-11-19T04:47:43;13.00;84.75
18581;DHT22;9420;50.876;7.012;2023-11-19T04:50:10;12.75;85.39
18581;DHT22;9420;50.876;7.012;2023-11-19T04:52:37;12.75;85.47
18581;DHT22;9420;50.876;7.012;2023-11-19T04:55:06;12.69;85.65
18581;DHT22;9420;50.876;7.012;2023-11-19T04:57:33;12.75;85.28
18581;DHT22;9420;50.876;7.012;2023-11-19T04:59:59;12.79;84.94
18581;DHT22;9420;50.876;7.012;2023-11-19T05:02:26;12.70;84.84
18581;DHT22;9420;50.876;7.012;2023-11-19T05:04:54;12.82;84.33
18581;DHT22;9420;50.876;7.012;2023-11-19T05:07:20;12.66;84.85
18581;DHT22;9420;50.876;7.012;2023-11-19T05:09:47;12.45;85.22
18581;DHT22;9420;50.876;7.012;2023-11-19T05:12:13;12.68;84.31
18581;DHT22;9420;50.876;7.012;2023-11-19T05:14:40;12.49;84.79
18581;DHT22;9420;50.876;7.012;2023-11-19T05:17:13;12.13;85.80
18581;DHT22;9420;50.876;7.012;2023-11-19T05:19:39;12.20;85.20
18581;DHT22;9420;50.876;7.012;2023-11-19T05:22:07;12.20;84.99
18581;DHT22;9420;50.876;7.012;2023-11-19T05:24:34;12.38;84.19
18581;DHT22;9420;50.876;7.012;2023-11-19T05:27:01;12.52;83.69
18581;DHT22;9420;50.876;7.012;2023-11-19T05:29:27;12.45;83.67
18581;DHT22;9420;50.876;7.012;2023-11-19T05:31:54;12.31;84.09
18581;DHT22;9420;50.876;7.012;2023-11-19T05:34:21;12.30;83.97
18581;DHT22;9420;50.876;7.012;2023-11-19T05:36:48;12.20;84.16
18581;DHT22;9420;50.876;7.012;2023-11-19T05:39:16;11.91;84.71
18581;DHT22;9420;50.876;7.012;2023-11-19T05:41:43;12.05;84.28
18581;DHT22;9420;50.876;7.012;2023-11-19T05:44:10;12.10;83.99
18581;DHT22;9420;50.876;7.012;2023-11-19T05:46:37;12.20;83.35
18581;DHT22;9420;50.876;7.012;2023-11-19T05:49:07;12.18;83.13
18581;DHT22;9420;50.876;7.012;2023-11-19T05:51:36;12.07;83.51
18581;DHT22;9420;50.876;7.012;2023-11-19T05:54:04;12.08;83.27
18581;DHT22;9420;50.876;7.012;2023-11-19T05:56:33;12.04;83.22
18581;DHT22;9420;50.876;7.012;2023-11-19T05:59:00;12.13;82.69
18581;DHT22;9420;50.876;7.012;2023-11-19T06:01:28;12.11;82.40
18581;DHT22;9420;50.876;7.012;2023-11-19T06:03:55;12.18;82.51
18581;DHT22;9420;50.876;7.012;2023-11-19T06:06:22;12.08;82.73
18581;DHT22;9420;50.876;7.012;2023-11-19T06:08:49;12.14;82.33
18581;DHT22;9420;50.876;7.012;2023-11-19T06:11:15;12.13;82.32
18581;DHT22;9420;50.876;7.012;2023-11-19T06:13:47;11.72;83.52
18581;DHT22;9420;50.876;7.012;2023-11-19T06:16:16;11.83;83.10
18581;DHT22;9420;50.876;7.012;2023-11-19T06:18:43;12.05;82.44
18581;DHT22;9420;50.876;7.012;2023-11-19T06:21:10;12.05;82.11
18581;DHT22;9420;50.876;7.012;2023-11-19T06:23:36;12.04;82.39
18581;DHT22;9420;50.876;7.012;2023-11-19T06:26:03;12.30;81.53
18581;DHT22;9420;50.876;7.012;2023-11-19T06:28:30;12.21;82.00
18581;DHT22;9420;50.876;7.012;2023-11-19T06:30:58;12.11;82.37
18581;DHT22;9420;50.876;7.012;2023-11-19T06:33:25;12.27;81.89
18581;DHT22;9420;50.876;7.012;2023-11-19T06:35:52;12.22;82.27
18581;DHT22;9420;50.876;7.012;2023-11-19T06:38:19;12.14;82.42
18581;DHT22;9420;50.876;7.012;2023-11-19T06:40:46;12.08;82.67
18581;DHT22;9420;50.876;7.012;2023-11-19T06:43:13;12.21;82.17
18581;DHT22;9420;50.876;7.012;2023-11-19T06:45:40;12.25;82.40
18581;DHT22;9420;50.876;7.012;2023-11-19T06:48:08;12.17;82.59
18581;DHT22;9420;50.876;7.012;2023-11-19T06:50:35;12.17;82.51
18581;DHT22;9420;50.876;7.012;2023-11-19T06:53:03;11.97;83.15
18581;DHT22;9420;50.876;7.012;2023-11-19T06:55:31;12.08;82.77
18581;DHT22;9420;50.876;7.012;2023-11-19T06:57:59;12.02;82.88
18581;DHT22;9420;50.876;7.012;2023-11-19T07:00:27;11.97;83.06
18581;DHT22;9420;50.876;7.012;2023-11-19T07:02:54;11.79;83.61
18581;DHT22;9420;50.876;7.012;2023-11-19T07:05:22;11.79;83.40
18581;DHT22;9420;50.876;7.012;2023-11-19T07:07:49;11.87;83.29
18581;DHT22;9420;50.876;7.012;2023-11-19T07:10:15;11.83;83.37
18581;DHT22;9420;50.876;7.012;2023-11-19T07:12:42;11.72;83.51
18581;DHT22;9420;50.876;7.012;2023-11-19T07:15:10;11.66;83.69
18581;DHT22;9420;50.876;7.012;2023-11-19T07:17:38;11.53;84.09
18581;DHT22;9420;50.876;7.012;2023-11-19T07:20:06;11.83;83.15
18581;DHT22;9420;50.876;7.012;2023-11-19T07:22:34;11.83;83.23
18581;DHT22;9420;50.876;7.012;2023-11-19T07:25:04;11.84;83.06
18581;DHT22;9420;50.876;7.012;2023-11-19T07:27:31;11.52;83.81
18581;DHT22;9420;50.876;7.012;2023-11-19T07:29:58;11.52;84.13
18581;DHT22;9420;50.876;7.012;2023-11-19T07:32:24;11.72;83.09
18581;DHT22;9420;50.876;7.012;2023-11-19T07:34:51;11.73;82.92
18581;DHT22;9420;50.876;7.012;2023-11-19T07:37:17;12.05;81.56
18581;DHT22;9420;50.876;7.012;2023-11-19T07:39:45;11.98;81.79
18581;DHT22;9420;50.876;7.012;2023-11-19T07:42:12;11.95;81.60
18581;DHT22;9420;50.876;7.012;2023-11-19T07:44:38;11.93;81.52
18581;DHT22;9420;50.876;7.012;2023-11-19T07:47:05;12.13;80.74
18581;DHT22;9420;50.876;7.012;2023-11-19T07:49:31;12.13;81.00
18581;DHT22;9420;50.876;7.012;2023-11-19T07:51:58;12.04;81.20
18581;DHT22;9420;50.876;7.012;2023-11-19T07:54:25;12.02;81.09
18581;DHT22;9420;50.876;7.012;2023-11-19T07:56:53;12.02;81.15
18581;DHT22;9420;50.876;7.012;2023-11-19T07:59:19;12.16;80.74
18581;DHT22;9420;50.876;7.012;2023-11-19T08:01:46;12.25;80.34
18581;DHT22;9420;50.876;7.012;2023-11-19T08:04:13;12.24;80.53
18581;DHT22;9420;50.876;7.012;2023-11-19T08:06:39;12.39;80.25
18581;DHT22;9420;50.876;7.012;2023-11-19T08:09:06;12.38;80.50
18581;DHT22;9420;50.876;7.012;2023-11-19T08:11:39;12.37;80.62
18581;DHT22;9420;50.876;7.012;2023-11-19T08:14:07;12.24;81.19
18581;DHT22;9420;50.876;7.012;2023-11-19T08:16:33;12.25;81.06
18581;DHT22;9420;50.876;7.012;2023-11-19T08:19:00;12.21;81.32
18581;DHT22;9420;50.876;7.012;2023-11-19T08:21:26;12.18;81.60
18581;DHT22;9420;50.876;7.012;2023-11-19T08:23:53;12.41;80.94
18581;DHT22;9420;50.876;7.012;2023-11-19T08:26:20;12.51;80.40
18581;DHT22;9420;50.876;7.012;2023-11-19T08:28:46;12.59;80.10
18581;DHT22;9420;50.876;7.012;2023-11-19T08:31:14;12.58;80.52
18581;DHT22;9420;50.876;7.012;2023-11-19T08:33:41;12.68;79.75
18581;DHT22;9420;50.876;7.012;2023-11-19T08:36:08;12.63;79.91
18581;DHT22;9420;50.876;7.012;2023-11-19T08:38:35;12.70;79.42
18581;DHT22;9420;50.876;7.012;2023-11-19T08:41:01;12.68;79.44
18581;DHT22;9420;50.876;7.012;2023-11-19T08:43:28;12.73;79.19
18581;DHT22;9420;50.876;7.012;2023-11-19T08:45:56;12.79;78.91
18581;DHT22;9420;50.876;7.012;2023-11-19T08:48:24;12.79;78.85
18581;DHT22;9420;50.876;7.012;2023-11-19T08:50:51;12.85;78.72
18581;DHT22;9420;50.876;7.012;2023-11-19T08:53:18;12.92;78.45
18581;DHT22;9420;50.876;7.012;2023-11-19T08:55:44;12.97;77.86
18581;DHT22;9420;50.876;7.012;2023-11-19T08:58:11;12.93;78.43
18581;DHT22;9420;50.876;7.012;2023-11-19T09:00:38;12.92;78.73
18581;DHT22;9420;50.876;7.012;2023-11-19T09:03:04;12.89;78.57
18581;DHT22;9420;50.876;7.012;2023-11-19T09:05:32;12.95;78.47
18581;DHT22;9420;50.876;7.012;2023-11-19T09:07:59;13.06;77.95
18581;DHT22;9420;50.876;7.012;2023-11-19T09:10:25;13.04;78.18
18581;DHT22;9420;50.876;7.012;2023-11-19T09:12:52;13.07;78.24
18581;DHT22;9420;50.876;7.012;2023-11-19T09:15:19;13.14;77.70
18581;DHT22;9420;50.876;7.012;2023-11-19T09:17:45;13.23;76.95
18581;DHT22;9420;50.876;7.012;2023-11-19T09:20:12;13.21;77.17
18581;DHT22;9420;50.876;7.012;2023-11-19T09:22:42;13.13;77.69
18581;DHT22;9420;50.876;7.012;2023-11-19T09:25:09;13.26;77.28
18581;DHT22;9420;50.876;7.012;2023-11-19T09:27:36;13.27;77.14
18581;DHT22;9420;50.876;7.012;2023-11-19T09:30:03;13.27;77.30
18581;DHT22;9420;50.876;7.012;2023-11-19T09:32:29;13.37;76.51
18581;DHT22;9420;50.876;7.012;2023-11-19T09:34:56;13.40;76.91
18581;DHT22;9420;50.876;7.012;2023-11-19T09:37:22;13.54;76.83
18581;DHT22;9420;50.876;7.012;2023-11-19T09:39:50;13.51;76.48
18581;DHT22;9420;50.876;7.012;2023-11-19T09:42:18;13.36;77.05
18581;DHT22;9420;50.876;7.012;2023-11-19T09:44:47;13.57;76.21
18581;DHT22;9420;50.876;7.012;2023-11-19T09:47:14;13.53;76.65
18581;DHT22;9420;50.876;7.012;2023-11-19T09:49:41;13.65;75.90
18581;DHT22;9420;50.876;7.012;2023-11-19T09:52:08;13.83;75.64
18581;DHT22;9420;50.876;7.012;2023-11-19T09:54:34;14.03;74.80
18581;DHT22;9420;50.876;7.012;2023-11-19T09:57:04;14.10;74.70
18581;DHT22;9420;50.876;7.012;2023-11-19T09:59:31;14.06;74.61
18581;DHT22;9420;50.876;7.012;2023-11-19T10:01:59;14.33;74.46
18581;DHT22;9420;50.876;7.012;2023-11-19T10:04:29;14.37;73.52
18581;DHT22;9420;50.876;7.012;2023-11-19T10:06:56;14.27;74.03
18581;DHT22;9420;50.876;7.012;2023-11-19T10:09:23;14.27;74.13
18581;DHT22;9420;50.876;7.012;2023-11-19T10:11:49;14.24;73.82
18581;DHT22;9420;50.876;7.012;2023-11-19T10:14:18;14.20;74.40
18581;DHT22;9420;50.876;7.012;2023-11-19T10:16:46;14.20;73.95
18581;DHT22;9420;50.876;7.012;2023-11-19T10:19:18;14.40;74.55
18581;DHT22;9420;50.876;7.012;2023-11-19T10:21:46;14.51;74.15
18581;DHT22;9420;50.876;7.012;2023-11-19T10:24:12;14.47;74.04
18581;DHT22;9420;50.876;7.012;2023-11-19T10:26:40;14.30;74.29
18581;DHT22;9420;50.876;7.012;2023-11-19T10:29:07;14.43;74.08
18581;DHT22;9420;50.876;7.012;2023-11-19T10:31:35;14.59;73.95
18581;DHT22;9420;50.876;7.012;2023-11-19T10:34:01;14.59;73.84
18581;DHT22;9420;50.876;7.012;2023-11-19T10:36:38;14.65;73.41
18581;DHT22;9420;50.876;7.012;2023-11-19T10:39:06;14.68;72.66
18581;DHT22;9420;50.876;7.012;2023-11-19T10:41:34;14.67;73.23
18581;DHT22;9420;50.876;7.012;2023-11-19T10:44:01;14.65;72.96
18581;DHT22;9420;50.876;7.012;2023-11-19T10:46:38;14.45;72.75
18581;DHT22;9420;50.876;7.012;2023-11-19T10:49:06;14.37;72.94
18581;DHT22;9420;50.876;7.012;2023-11-19T10:51:33;14.29;73.09
18581;DHT22;9420;50.876;7.012;2023-11-19T10:54:02;14.32;72.76
18581;DHT22;9420;50.876;7.012;2023-11-19T10:56:31;14.34;72.53
18581;DHT22;9420;50.876;7.012;2023-11-19T10:58:59;14.38;72.77
18581;DHT22;9420;50.876;7.012;2023-11-19T11:01:27;14.19;73.39
18581;DHT22;9420;50.876;7.012;2023-11-19T11:04:00;14.05;73.94
18581;DHT22;9420;50.876;7.012;2023-11-19T11:06:27;14.08;73.73
18581;DHT22;9420;50.876;7.012;2023-11-19T11:08:54;14.09;73.12
18581;DHT22;9420;50.876;7.012;2023-11-19T11:11:21;14.06;73.46
18581;DHT22;9420;50.876;7.012;2023-11-19T11:13:49;14.03;73.50
18581;DHT22;9420;50.876;7.012;2023-11-19T11:16:18;14.13;73.64
18581;DHT22;9420;50.876;7.012;2023-11-19T11:18:45;14.24;72.87
18581;DHT22;9420;50.876;7.012;2023-11-19T11:21:20;14.26;73.43
18581;DHT22;9420;50.876;7.012;2023-11-19T11:24:06;14.36;72.70
18581;DHT22;9420;50.876;7.012;2023-11-19T11:27:09;14.38;72.19
18581;DHT22;9420;50.876;7.012;2023-11-19T11:29:46;14.38;72.74
18581;DHT22;9420;50.876;7.012;2023-11-19T11:32:27;14.26;72.59
18581;DHT22;9420;50.876;7.012;2023-11-19T11:35:12;14.23;72.03
18581;DHT22;9420;50.876;7.012;2023-11-19T11:37:45;14.44;71.86
18581;DHT22;9420;50.876;7.012;2023-11-19T11:40:14;14.56;71.89
18581;DHT22;9420;50.876;7.012;2023-11-19T11:42:41;14.80;71.34
18581;DHT22;9420;50.876;7.012;2023-11-19T11:45:09;15.76;69.44
18581;DHT22;9420;50.876;7.012;2023-11-19T11:48:08;17.23;63.94
18581;DHT22;9420;50.876;7.012;2023-11-19T11:50:36;16.19;67.32
18581;DHT22;9420;50.876;7.012;2023-11-19T11:53:16;15.06;70.64
18581;DHT22;9420;50.876;7.012;2023-11-19T11:55:55;14.84;70.43
18581;DHT22;9420;50.876;7.012;2023-11-19T11:58:30;15.30;70.51
18581;DHT22;9420;50.876;7.012;2023-11-19T12:00:58;17.17;65.50
18581;DHT22;9420;50.876;7.012;2023-11-19T12:03:27;16.44;68.07
18581;DHT22;9420;50.876;7.012;2023-11-19T12:05:53;17.49;64.80
18581;DHT22;9420;50.876;7.012;2023-11-19T12:08:26;16.77;66.88
18581;DHT22;9420;50.876;7.012;2023-11-19T12:10:54;16.53;67.09
18581;DHT22;9420;50.876;7.012;2023-11-19T12:13:23;16.60;67.32
18581;DHT22;9420;50.876;7.012;2023-11-19T12:16:08;15.59;69.77
18581;DHT22;9420;50.876;7.012;2023-11-19T12:18:36;15.38;70.60
18581;DHT22;9420;50.876;7.012;2023-11-19T12:21:05;15.47;69.45
18581;DHT22;9420;50.876;7.012;2023-11-19T12:23:44;15.25;71.83
18581;DHT22;9420;50.876;7.012;2023-11-19T12:26:21;15.60;69.71
18581;DHT22;9420;50.876;7.012;2023-11-19T12:28:59;16.81;66.60
18581;DHT22;9420;50.876;7.012;2023-11-19T12:31:29;15.76;68.81
18581;DHT22;9420;50.876;7.012;2023-11-19T12:33:55;17.79;64.36
18581;DHT22;9420;50.876;7.012;2023-11-19T12:36:22;18.26;62.42
18581;DHT22;9420;50.876;7.012;2023-11-19T12:38:50;18.58;60.72
18581;DHT22;9420;50.876;7.012;2023-11-19T12:41:17;16.63;67.00
18581;DHT22;9420;50.876;7.012;2023-11-19T12:43:47;15.78;68.91
18581;DHT22;9420;50.876;7.012;2023-11-19T12:46:17;15.33;69.86
18581;DHT22;9420;50.876;7.012;2023-11-19T12:48:45;14.99;71.12
18581;DHT22;9420;50.876;7.012;2023-11-19T12:51:11;14.77;71.99
18581;DHT22;9420;50.876;7.012;2023-11-19T12:53:47;14.68;71.89
18581;DHT22;9420;50.876;7.012;2023-11-19T12:56:16;14.40;72.47
18581;DHT22;9420;50.876;7.012;2023-11-19T12:58:43;14.36;72.89
18581;DHT22;9420;50.876;7.012;2023-11-19T13:01:09;14.53;72.80
18581;DHT22;9420;50.876;7.012;2023-11-19T13:03:37;14.96;71.90
18581;DHT22;9420;50.876;7.012;2023-11-19T13:06:05;14.93;71.50
18581;DHT22;9420;50.876;7.012;2023-11-19T13:08:37;14.59;73.20
18581;DHT22;9420;50.876;7.012;2023-11-19T13:11:04;14.72;73.03
18581;DHT22;9420;50.876;7.012;2023-11-19T13:13:53;14.60;73.16
18581;DHT22;9420;50.876;7.012;2023-11-19T13:16:19;14.75;72.75
18581;DHT22;9420;50.876;7.012;2023-11-19T13:18:46;14.68;73.13
18581;DHT22;9420;50.876;7.012;2023-11-19T13:21:13;15.60;71.00
18581;DHT22;9420;50.876;7.012;2023-11-19T13:23:39;15.23;71.02
18581;DHT22;9420;50.876;7.012;2023-11-19T13:26:06;16.35;68.15
18581;DHT22;9420;50.876;7.012;2023-11-19T13:28:34;17.00;66.18
18581;DHT22;9420;50.876;7.012;2023-11-19T13:31:00;16.09;69.02
18581;DHT22;9420;50.876;7.012;2023-11-19T13:33:28;15.53;69.91
18581;DHT22;9420;50.876;7.012;2023-11-19T13:35:54;15.22;71.81
18581;DHT22;9420;50.876;7.012;2023-11-19T13:38:21;14.75;72.51
18581;DHT22;9420;50.876;7.012;2023-11-19T13:40:48;14.95;72.14
18581;DHT22;9420;50.876;7.012;2023-11-19T13:43:15;14.68;72.72
18581;DHT22;9420;50.876;7.012;2023-11-19T13:45:43;15.39;70.16
18581;DHT22;9420;50.876;7.012;2023-11-19T13:48:09;16.24;68.63
18581;DHT22;9420;50.876;7.012;2023-11-19T13:50:36;17.71;63.93
18581;DHT22;9420;50.876;7.012;2023-11-19T13:53:02;18.38;62.03
18581;DHT22;9420;50.876;7.012;2023-11-19T13:55:30;18.33;61.67
18581;DHT22;9420;50.876;7.012;2023-11-19T13:57:56;18.26;60.60
18581;DHT22;9420;50.876;7.012;2023-11-19T14:00:23;17.99;61.14
18581;DHT22;9420;50.876;7.012;2023-11-19T14:02:51;18.48;60.78
18581;DHT22;9420;50.876;7.012;2023-11-19T14:05:18;18.43;60.23
18581;DHT22;9420;50.876;7.012;2023-11-19T14:07:45;16.72;64.74
18581;DHT22;9420;50.876;7.012;2023-11-19T14:10:13;16.28;65.90
18581;DHT22;9420;50.876;7.012;2023-11-19T14:12:40;16.93;63.64
18581;DHT22;9420;50.876;7.012;2023-11-19T14:15:08;15.50;67.60
18581;DHT22;9420;50.876;7.012;2023-11-19T14:17:37;15.16;68.72
18581;DHT22;9420;50.876;7.012;2023-11-19T14:20:06;14.84;69.24
18581;DHT22;9420;50.876;7.012;2023-11-19T14:22:38;15.28;68.42
18581;DHT22;9420;50.876;7.012;2023-11-19T14:25:05;15.08;68.86
18581;DHT22;9420;50.876;7.012;2023-11-19T14:27:35;14.84;69.68
18581;DHT22;9420;50.876;7.012;2023-11-19T14:30:02;14.54;70.39
18581;DHT22;9420;50.876;7.012;2023-11-19T14:32:29;14.47;71.09
18581;DHT22;9420;50.876;7.012;2023-11-19T14:34:55;14.27;71.44
18581;DHT22;9420;50.876;7.012;2023-11-19T14:37:23;14.37;71.78
18581;DHT22;9420;50.876;7.012;2023-11-19T14:39:50;14.38;71.85
18581;DHT22;9420;50.876;7.012;2023-11-19T14:42:17;14.87;69.23
18581;DHT22;9420;50.876;7.012;2023-11-19T14:44:44;14.48;70.87
18581;DHT22;9420;50.876;7.012;2023-11-19T14:47:10;14.63;70.93
18581;DHT22;9420;50.876;7.012;2023-11-19T14:49:37;15.16;68.82
18581;DHT22;9420;50.876;7.012;2023-11-19T14:52:04;14.87;69.52
18581;DHT22;9420;50.876;7.012;2023-11-19T14:54:32;14.56;70.40
18581;DHT22;9420;50.876;7.012;2023-11-19T14:56:58;14.32;71.29
18581;DHT22;9420;50.876;7.012;2023-11-19T14:59:25;14.16;72.64
18581;DHT22;9420;50.876;7.012;2023-11-19T15:01:52;14.17;72.20
18581;DHT22;9420;50.876;7.012;2023-11-19T15:04:18;14.10;72.38
18581;DHT22;9420;50.876;7.012;2023-11-19T15:06:45;14.13;72.41
18581;DHT22;9420;50.876;7.012;2023-11-19T15:09:12;14.12;72.70
18581;DHT22;9420;50.876;7.012;2023-11-19T15:11:43;13.78;73.34
18581;DHT22;9420;50.876;7.012;2023-11-19T15:14:11;13.68;73.27
18581;DHT22;9420;50.876;7.012;2023-11-19T15:16:40;13.58;73.73
18581;DHT22;9420;50.876;7.012;2023-11-19T15:19:07;13.55;73.52
18581;DHT22;9420;50.876;7.012;2023-11-19T15:21:33;13.43;73.85
18581;DHT22;9420;50.876;7.012;2023-11-19T15:24:00;13.38;74.01
18581;DHT22;9420;50.876;7.012;2023-11-19T15:26:29;13.33;74.42
18581;DHT22;9420;50.876;7.012;2023-11-19T15:28:57;13.33;74.30
18581;DHT22;9420;50.876;7.012;2023-11-19T15:31:24;13.34;74.00
18581;DHT22;9420;50.876;7.012;2023-11-19T15:33:50;13.31;74.47
18581;DHT22;9420;50.876;7.012;2023-11-19T15:36:17;13.08;76.42
18581;DHT22;9420;50.876;7.012;2023-11-19T15:38:44;12.70;77.11
18581;DHT22;9420;50.876;7.012;2023-11-19T15:41:11;12.60;77.24
18581;DHT22;9420;50.876;7.012;2023-11-19T15:43:37;12.80;76.08
18581;DHT22;9420;50.876;7.012;2023-11-19T15:46:07;12.80;76.05
18581;DHT22;9420;50.876;7.012;2023-11-19T15:48:34;12.90;76.03
18581;DHT22;9420;50.876;7.012;2023-11-19T15:51:01;13.07;74.69